Time;durP1;ratioP1;P1;durP2;ratioP2;P2;SDS_P1;SDS_P2;PMS_P1;PMS_P2;Temp;Humidity;BMP_temperature;BMP_pressure;BME280_temperature;BME280_humidity;BME280_pressure;Samples;Min_cycle;Max_cycle;Signal;HPM_P1;HPM_P2
2023/05/30 00:01:06;;;;;;;6.03;5.22;;;;;;;14.70;87.93;94904.59;5086362;28;20302;-67
2023/05/30 00:03:33;;;;;;;5.40;4.88;;;;;;;14.62;88.61;94914.41;5089315;28;20257;-67
2023/05/30 00:06:00;;;;;;;5.90;5.50;;;;;;;14.60;89.20;94911.09;5090595;28;20648;-68
2023/05/30 00:08:28;;;;;;;9.45;5.93;;;;;;;14.56;88.56;94917.28;5088774;28;20287;-67
2023/05/30 00:10:55;;;;;;;5.97;5.38;;;;;;;14.59;89.00;94906.91;5088600;28;20205;-68
2023/05/30 00:13:22;;;;;;;8.05;7.10;;;;;;;14.65;89.24;94909.13;5090029;28;20297;-67
2023/05/30 00:15:51;;;;;;;6.97;6.32;;;;;;;14.71;89.56;94911.38;5088374;28;20734;-68
2023/05/30 00:18:18;;;;;;;7.38;6.68;;;;;;;14.75;89.22;94906.94;5088819;28;20206;-67
2023/05/30 00:20:45;;;;;;;7.95;7.25;;;;;;;14.78;89.18;94920.38;5089378;28;20241;-67
2023/05/30 00:23:12;;;;;;;7.20;6.50;;;;;;;14.67;89.09;94927.78;5078270;28;20302;-67
2023/05/30 00:25:40;;;;;;;9.10;7.47;;;;;;;14.69;89.00;94920.84;5088306;28;20203;-67
2023/05/30 00:28:07;;;;;;;6.90;6.30;;;;;;;14.74;88.66;94924.00;5088249;28;20197;-65
2023/05/30 00:30:35;;;;;;;8.68;6.93;;;;;;;14.63;88.70;94921.16;5087343;28;20609;-66
2023/05/30 00:33:02;;;;;;;7.35;6.85;;;;;;;14.54;89.40;94911.44;5081964;28;20222;-67
2023/05/30 00:35:29;;;;;;;8.52;6.53;;;;;;;14.59;89.53;94927.38;5086114;28;20929;-66
2023/05/30 00:37:55;;;;;;;9.10;6.72;;;;;;;14.57;89.53;94922.31;5088721;28;20201;-66
2023/05/30 00:40:22;;;;;;;8.05;7.18;;;;;;;14.52;89.16;94923.47;5087955;28;20221;-67
2023/05/30 00:42:50;;;;;;;8.32;7.40;;;;;;;14.40;89.54;94929.97;5089600;28;20229;-66
2023/05/30 00:45:17;;;;;;;7.72;7.00;;;;;;;14.38;89.97;94930.97;5089104;28;20197;-65
2023/05/30 00:47:45;;;;;;;7.32;6.63;;;;;;;14.36;89.83;94932.75;5076871;28;20260;-67
2023/05/30 00:50:12;;;;;;;7.25;6.55;;;;;;;14.35;89.98;94924.28;5071526;28;20203;-68
2023/05/30 00:52:39;;;;;;;8.27;7.50;;;;;;;14.36;90.16;94937.88;5074960;28;20202;-67
2023/05/30 00:55:06;;;;;;;10.05;6.07;;;;;;;14.26;90.24;94928.13;5080719;28;20257;-66
2023/05/30 00:57:34;;;;;;;9.93;6.93;;;;;;;14.25;90.12;94931.59;5092374;28;20288;-67
2023/05/30 01:00:04;;;;;;;7.90;5.75;;;;;;;14.11;90.67;94921.19;5094246;28;20620;-66
2023/05/30 01:02:33;;;;;;;6.80;5.60;;;;;;;14.18;90.07;94925.13;5081413;28;20194;-66
2023/05/30 01:05:00;;;;;;;6.57;5.63;;;;;;;14.17;89.93;94938.78;5093714;28;20205;-67
2023/05/30 01:07:27;;;;;;;5.97;5.32;;;;;;;14.06;89.99;94930.84;5091776;28;20673;-67
2023/05/30 01:09:54;;;;;;;6.63;6.00;;;;;;;14.11;90.30;94933.16;5093442;28;20198;-66
2023/05/30 01:12:30;;;;;;;6.45;5.07;;;;;;;14.16;90.32;94926.91;5092322;28;20221;-67
2023/05/30 01:15:05;;;;;;;5.03;4.68;;;;;;;14.17;90.15;94923.47;5093448;28;20547;-67
2023/05/30 01:17:44;;;;;;;6.95;5.45;;;;;;;14.13;90.07;94924.50;5092557;28;20205;-66
2023/05/30 01:20:12;;;;;;;6.03;5.47;;;;;;;14.15;90.09;94925.28;5093071;28;20308;-65
2023/05/30 01:23:09;;;;;;;6.25;5.65;;;;;;;14.06;90.29;94925.75;5093195;28;20205;-67
2023/05/30 01:25:59;;;;;;;7.20;4.90;;;;;;;13.99;90.79;94934.59;5092958;28;20197;-66
2023/05/30 01:28:30;;;;;;;6.28;5.88;;;;;;;13.93;91.17;94929.78;5091883;28;20240;-66
2023/05/30 01:30:58;;;;;;;7.45;6.15;;;;;;;13.96;90.95;94925.34;5085721;28;20264;-66
2023/05/30 01:33:27;;;;;;;6.30;5.78;;;;;;;13.98;90.95;94914.22;5074439;28;20283;-65
2023/05/30 01:35:53;;;;;;;6.03;5.45;;;;;;;13.99;90.78;94916.72;5073565;28;20226;-67
2023/05/30 01:38:20;;;;;;;6.15;5.57;;;;;;;13.97;91.15;94913.41;5074527;28;20248;-67
2023/05/30 01:40:50;;;;;;;5.80;5.40;;;;;;;13.93;90.96;94915.28;5073740;28;20666;-66
2023/05/30 01:43:37;;;;;;;5.90;5.32;;;;;;;13.88;91.44;94911.28;5074825;28;20235;-67
2023/05/30 01:46:14;;;;;;;7.15;6.65;;;;;;;13.81;92.07;94915.06;5073673;28;20226;-67
2023/05/30 01:48:56;;;;;;;6.50;5.90;;;;;;;13.79;91.36;94917.69;5085921;28;20194;-67
2023/05/30 01:51:29;;;;;;;6.78;5.88;;;;;;;13.78;91.34;94925.44;5086323;28;20214;-66
2023/05/30 01:54:02;;;;;;;7.95;5.35;;;;;;;13.74;90.53;94919.63;5073262;28;20248;-67
2023/05/30 01:56:31;;;;;;;8.13;4.50;;;;;;;13.65;90.96;94919.25;5073331;28;20259;-67
2023/05/30 01:59:00;;;;;;;6.00;4.47;;;;;;;13.45;90.81;94903.13;5084702;28;20205;-66
2023/05/30 02:01:29;;;;;;;5.10;4.72;;;;;;;13.57;91.07;94919.63;5073660;28;20230;-67
2023/05/30 02:03:56;;;;;;;6.10;5.50;;;;;;;13.56;90.95;94916.25;5086164;28;20229;-67
2023/05/30 02:06:24;;;;;;;6.55;5.95;;;;;;;13.50;91.24;94916.53;5079170;28;20697;-66
2023/05/30 02:08:50;;;;;;;9.82;5.78;;;;;;;13.46;91.74;94909.91;5091942;28;20290;-65
2023/05/30 02:11:17;;;;;;;6.30;5.70;;;;;;;13.51;91.93;94923.28;5091682;28;20666;-67
2023/05/30 02:13:45;;;;;;;6.63;5.90;;;;;;;13.29;92.06;94912.44;5092459;28;20202;-67
2023/05/30 02:16:13;;;;;;;6.43;5.30;;;;;;;13.43;92.43;94927.09;5092122;28;20253;-66
2023/05/30 02:18:40;;;;;;;5.82;4.70;;;;;;;13.42;92.10;94933.91;5091488;28;20210;-66
2023/05/30 02:21:07;;;;;;;6.13;5.38;;;;;;;13.52;91.45;94935.16;5074059;28;20230;-67
2023/05/30 02:23:34;;;;;;;6.25;4.72;;;;;;;13.40;91.16;94925.50;5084210;28;20274;-66
2023/05/30 02:26:01;;;;;;;5.28;4.80;;;;;;;13.32;91.39;94935.25;5090450;28;20287;-65
2023/05/30 02:28:27;;;;;;;6.05;5.30;;;;;;;13.40;92.21;94940.81;5076950;28;20656;-67
2023/05/30 02:30:54;;;;;;;5.95;5.45;;;;;;;13.39;91.99;94936.59;5083317;28;20679;-66
2023/05/30 02:33:22;;;;;;;5.95;5.18;;;;;;;13.39;92.42;94933.22;5083603;28;20198;-66
2023/05/30 02:35:48;;;;;;;6.63;5.93;;;;;;;13.34;92.25;94915.59;5078253;28;20252;-65
2023/05/30 02:38:15;;;;;;;6.30;5.68;;;;;;;13.40;92.14;94943.38;5078269;28;20233;-67
2023/05/30 02:40:42;;;;;;;7.72;5.93;;;;;;;13.34;92.27;94935.19;5083669;28;20238;-62
2023/05/30 02:43:08;;;;;;;6.68;6.00;;;;;;;13.42;92.81;94930.53;5072622;28;20311;-65
2023/05/30 02:45:35;;;;;;;6.63;6.13;;;;;;;13.43;92.44;94929.63;5080859;28;20286;-66
2023/05/30 02:48:02;;;;;;;9.10;6.03;;;;;;;13.42;92.42;94928.81;5091097;28;20210;-67
2023/05/30 02:50:30;;;;;;;7.05;5.78;;;;;;;13.36;92.25;94918.06;5091794;28;20260;-67
2023/05/30 02:52:56;;;;;;;6.80;6.20;;;;;;;13.41;92.42;94922.03;5088583;28;20287;-65
2023/05/30 02:55:23;;;;;;;10.85;7.03;;;;;;;13.44;92.43;94932.13;5072540;28;20322;-66
2023/05/30 02:57:50;;;;;;;6.95;6.35;;;;;;;13.46;92.15;94926.94;5072794;28;20282;-65
2023/05/30 03:00:19;;;;;;;9.98;6.85;;;;;;;13.48;92.01;94928.53;5071883;28;20241;-66
2023/05/30 03:02:46;;;;;;;8.02;6.45;;;;;;;13.52;92.06;94927.50;5073824;28;20234;-65
2023/05/30 03:05:13;;;;;;;9.23;6.15;;;;;;;13.65;92.04;94929.44;5073285;28;20747;-67
2023/05/30 03:07:41;;;;;;;9.57;6.65;;;;;;;13.72;91.57;94933.38;5076361;28;20321;-65
2023/05/30 03:10:08;;;;;;;9.50;7.35;;;;;;;13.65;91.79;94926.91;5082278;28;20229;-67
2023/05/30 03:12:34;;;;;;;8.40;7.60;;;;;;;13.61;91.26;94924.47;5088037;28;20651;-65
2023/05/30 03:15:01;;;;;;;7.50;6.78;;;;;;;13.59;91.68;94926.31;5081351;28;20269;-66
2023/05/30 03:17:28;;;;;;;16.52;7.13;;;;;;;13.53;91.91;94931.69;5073076;28;20201;-66
2023/05/30 03:19:54;;;;;;;11.00;7.47;;;;;;;13.60;91.67;94933.06;5071758;28;20206;-70
2023/05/30 03:22:21;;;;;;;11.52;7.90;;;;;;;13.63;91.13;94930.34;5075286;28;20193;-66
2023/05/30 03:24:49;;;;;;;9.93;7.88;;;;;;;13.71;90.76;94931.72;5080498;28;20244;-66
2023/05/30 03:27:16;;;;;;;14.05;7.78;;;;;;;13.81;90.75;94932.94;5088038;28;20198;-66
2023/05/30 03:29:42;;;;;;;11.30;8.32;;;;;;;13.76;90.59;94929.78;5091139;28;20206;-66
2023/05/30 03:32:09;;;;;;;24.38;11.98;;;;;;;13.66;90.47;94915.78;5086814;28;20230;-66
2023/05/30 03:34:36;;;;;;;13.27;9.27;;;;;;;13.75;90.07;94939.16;5082762;28;20198;-66
2023/05/30 03:37:03;;;;;;;19.42;9.27;;;;;;;13.80;89.75;94939.78;5090840;28;20733;-66
2023/05/30 03:39:30;;;;;;;13.75;8.25;;;;;;;13.82;89.81;94943.09;5090546;28;20206;-67
2023/05/30 03:41:58;;;;;;;9.05;8.18;;;;;;;13.84;89.36;94941.28;5085468;28;20225;-67
2023/05/30 03:44:25;;;;;;;9.30;8.38;;;;;;;13.89;89.27;94943.59;5071235;28;20256;-65
2023/05/30 03:46:51;;;;;;;11.25;8.52;;;;;;;13.86;89.33;94939.47;5071230;28;20244;-69
2023/05/30 03:49:18;;;;;;;14.00;7.47;;;;;;;14.04;88.92;94942.88;5071282;28;20252;-67
2023/05/30 03:51:44;;;;;;;10.75;7.90;;;;;;;14.11;88.13;94945.94;5071878;28;20249;-66
2023/05/30 03:54:11;;;;;;;9.25;7.40;;;;;;;14.11;88.25;94944.19;5071145;28;20198;-67
2023/05/30 03:56:38;;;;;;;9.40;7.57;;;;;;;14.20;88.03;94946.31;5072448;28;20250;-67
2023/05/30 03:59:07;;;;;;;9.55;7.20;;;;;;;14.33;88.00;94954.22;5071444;28;20199;-66
2023/05/30 04:01:34;;;;;;;12.18;7.88;;;;;;;14.47;87.55;94958.66;5071061;28;20206;-67
2023/05/30 04:04:00;;;;;;;8.32;7.18;;;;;;;14.62;87.04;94961.25;5072100;28;20234;-65
2023/05/30 04:06:27;;;;;;;15.63;6.85;;;;;;;14.78;86.59;94960.50;5071180;28;20236;-67
2023/05/30 04:08:54;;;;;;;42.33;25.25;;;;;;;14.88;86.11;94972.72;5085296;28;20691;-66
2023/05/30 04:11:21;;;;;;;31.70;21.10;;;;;;;14.91;85.55;94967.44;5085424;28;20245;-63
2023/05/30 04:13:48;;;;;;;16.27;9.15;;;;;;;15.01;85.15;94962.69;5086648;28;20679;-67
2023/05/30 04:16:16;;;;;;;33.75;14.23;;;;;;;15.15;84.84;94970.44;5074312;28;20315;-63
2023/05/30 04:18:43;;;;;;;35.67;20.48;;;;;;;15.72;84.74;94975.94;5073320;28;20234;-63
2023/05/30 04:21:11;;;;;;;26.02;15.93;;;;;;;16.74;81.52;94977.81;5091741;28;20206;-67
2023/05/30 04:23:39;;;;;;;19.25;10.40;;;;;;;17.56;76.93;94977.13;5089868;28;20224;-66
2023/05/30 04:26:06;;;;;;;15.55;7.45;;;;;;;17.90;75.28;94981.00;5087843;28;20198;-66
2023/05/30 04:28:36;;;;;;;11.73;6.93;;;;;;;18.16;73.96;94977.59;5087955;28;20216;-65
2023/05/30 04:31:05;;;;;;;22.27;7.97;;;;;;;18.65;72.37;94982.13;5079917;28;20206;-67
2023/05/30 04:33:35;;;;;;;17.92;8.05;;;;;;;19.01;70.60;94977.09;5068944;28;20205;-68
2023/05/30 04:36:04;;;;;;;15.20;7.80;;;;;;;19.12;68.85;94972.94;5078072;28;20213;-67
2023/05/30 04:38:32;;;;;;;27.20;15.70;;;;;;;19.16;68.74;94982.13;5089225;28;20201;-68
2023/05/30 04:41:00;;;;;;;50.03;32.17;;;;;;;19.28;68.87;94983.88;5090436;28;20198;-69
2023/05/30 04:43:27;;;;;;;35.42;17.40;;;;;;;19.85;67.46;94978.16;5089555;28;20207;-69
2023/05/30 04:45:54;;;;;;;22.67;9.77;;;;;;;20.46;65.90;94978.91;5089720;28;20585;-68
2023/05/30 04:48:21;;;;;;;20.65;14.07;;;;;;;21.54;61.28;94979.25;5089368;28;20683;-68
2023/05/30 04:50:49;;;;;;;24.40;10.80;;;;;;;21.88;59.78;94974.03;5088823;28;20768;-69
2023/05/30 04:53:17;;;;;;;16.17;8.07;;;;;;;21.97;59.42;94975.91;5089148;28;20334;-69
2023/05/30 04:55:44;;;;;;;17.98;9.20;;;;;;;21.75;59.82;94983.72;5089569;28;20312;-69
2023/05/30 04:58:11;;;;;;;22.20;14.45;;;;;;;21.93;60.42;94982.25;5088865;28;20667;-71
2023/05/30 05:00:38;;;;;;;26.40;18.98;;;;;;;22.87;57.97;94992.72;5089698;28;20202;-67
2023/05/30 05:03:05;;;;;;;21.60;12.80;;;;;;;24.32;54.43;94981.06;5088677;28;20595;-70
2023/05/30 05:05:32;;;;;;;8.55;6.63;;;;;;;25.18;50.29;94981.09;5089126;28;20861;-71
2023/05/30 05:08:00;;;;;;;10.82;7.10;;;;;;;25.17;49.71;94989.88;5075899;28;20263;-68
2023/05/30 05:10:27;;;;;;;7.88;6.45;;;;;;;24.46;50.33;94989.41;5089312;28;20676;-70
2023/05/30 05:12:54;;;;;;;7.25;5.90;;;;;;;23.87;51.74;94992.88;5088011;28;20255;-71
2023/05/30 05:15:21;;;;;;;7.88;6.22;;;;;;;23.36;52.86;94998.97;5089030;28;20705;-71
2023/05/30 05:17:48;;;;;;;5.60;4.85;;;;;;;22.56;54.84;94983.19;5077358;28;20270;-72
2023/05/30 05:20:15;;;;;;;7.90;5.15;;;;;;;21.94;56.52;95002.81;5089274;28;20208;-67
2023/05/30 05:22:41;;;;;;;6.10;5.57;;;;;;;21.60;57.84;95001.22;5070869;28;20675;-71
2023/05/30 05:25:10;;;;;;;6.78;5.85;;;;;;;21.50;58.36;94998.56;5082908;28;20563;-70
2023/05/30 05:27:39;;;;;;;6.20;4.88;;;;;;;21.41;58.92;94982.94;5089010;28;20659;-70
2023/05/30 05:30:08;;;;;;;5.80;5.40;;;;;;;21.54;59.08;94997.34;5076295;28;20627;-70
2023/05/30 05:32:37;;;;;;;5.97;5.22;;;;;;;21.43;58.86;95002.56;5077828;28;20209;-69
2023/05/30 05:35:04;;;;;;;6.90;6.05;;;;;;;21.41;58.66;95009.59;5089328;28;20292;-69
2023/05/30 05:37:31;;;;;;;9.02;5.28;;;;;;;21.17;59.90;95006.28;5092507;28;20221;-69
2023/05/30 05:39:59;;;;;;;6.53;5.55;;;;;;;21.03;60.18;95009.91;5090564;28;20687;-69
2023/05/30 05:42:27;;;;;;;11.25;5.97;;;;;;;20.68;61.61;95007.38;5081938;28;20201;-67
2023/05/30 05:44:53;;;;;;;8.02;6.25;;;;;;;20.38;62.84;95019.00;5089285;28;20226;-68
2023/05/30 05:47:20;;;;;;;7.43;5.88;;;;;;;20.30;63.20;95012.72;5074563;28;20364;-68
2023/05/30 05:49:47;;;;;;;11.35;6.78;;;;;;;20.11;63.51;95012.41;5086151;28;20230;-69
2023/05/30 05:52:13;;;;;;;9.38;5.80;;;;;;;19.93;63.98;95022.28;5082333;28;20221;-70
2023/05/30 05:54:40;;;;;;;11.07;5.95;;;;;;;19.82;64.88;95029.94;5090513;28;20962;-69
2023/05/30 05:57:07;;;;;;;10.32;6.68;;;;;;;19.82;65.73;95025.59;5083847;28;20650;-68
2023/05/30 05:59:35;;;;;;;7.55;6.85;;;;;;;19.84;66.15;95020.34;5087918;28;20230;-69
2023/05/30 06:02:01;;;;;;;10.40;6.75;;;;;;;19.84;66.43;95023.75;5092007;28;20229;-68
2023/05/30 06:04:28;;;;;;;7.97;6.15;;;;;;;19.77;67.06;95024.31;5089713;28;20230;-68
2023/05/30 06:06:55;;;;;;;10.50;7.90;;;;;;;19.82;66.73;95014.47;5091480;28;20194;-69
2023/05/30 06:09:23;;;;;;;14.82;12.32;;;;;;;19.89;66.38;95023.44;5087644;28;20295;-68
2023/05/30 06:11:50;;;;;;;15.63;11.68;;;;;;;19.99;66.45;95025.25;5073751;28;20203;-68
2023/05/30 06:14:17;;;;;;;9.13;8.18;;;;;;;20.20;66.02;95022.06;5089565;28;20226;-69
2023/05/30 06:16:45;;;;;;;10.63;7.90;;;;;;;20.53;65.28;95026.59;5092784;28;20268;-69
2023/05/30 06:19:11;;;;;;;8.23;7.40;;;;;;;21.00;63.94;95029.06;5087366;28;20238;-61
2023/05/30 06:21:38;;;;;;;10.38;7.20;;;;;;;22.79;59.42;95022.78;5073348;28;20251;-69
2023/05/30 06:24:05;;;;;;;13.23;9.13;;;;;;;26.71;48.59;95031.53;5072353;28;20288;-69
2023/05/30 06:26:32;;;;;;;12.52;7.60;;;;;;;30.18;41.18;95022.91;5082700;28;20205;-69
2023/05/30 06:28:59;;;;;;;7.22;6.65;;;;;;;33.27;35.02;95012.41;5088969;28;20235;-67
2023/05/30 06:31:25;;;;;;;9.23;7.18;;;;;;;32.87;34.07;95015.72;5090314;28;20302;-70
2023/05/30 06:33:53;;;;;;;17.67;9.02;;;;;;;30.83;37.45;95024.28;5084728;28;20335;-69
2023/05/30 06:36:20;;;;;;;12.75;8.25;;;;;;;28.75;40.79;95023.66;5071395;28;20226;-70
2023/05/30 06:38:47;;;;;;;8.90;7.70;;;;;;;27.41;44.15;95034.16;5072912;28;20201;-69
2023/05/30 06:41:14;;;;;;;9.15;8.23;;;;;;;26.57;46.30;95028.59;5073301;28;20237;-68
2023/05/30 06:43:41;;;;;;;9.45;8.65;;;;;;;25.68;48.83;95031.88;5073412;28;20198;-70
2023/05/30 06:46:07;;;;;;;18.52;8.65;;;;;;;25.00;50.52;95026.00;5074043;28;20294;-70
2023/05/30 06:48:34;;;;;;;15.20;9.38;;;;;;;24.33;51.91;95026.84;5073428;28;20296;-67
2023/05/30 06:51:02;;;;;;;15.32;8.68;;;;;;;23.73;52.92;95039.00;5073869;28;20319;-67
2023/05/30 06:53:29;;;;;;;10.27;8.18;;;;;;;23.17;54.45;95045.53;5074318;28;20238;-69
2023/05/30 06:55:55;;;;;;;10.10;7.78;;;;;;;22.73;55.79;95037.06;5075152;28;20639;-69
2023/05/30 06:58:22;;;;;;;11.18;6.32;;;;;;;22.44;56.88;95041.19;5073929;28;20240;-68
2023/05/30 07:00:48;;;;;;;11.02;6.32;;;;;;;22.08;57.52;95045.75;5085053;28;20201;-68
2023/05/30 07:03:15;;;;;;;21.75;11.00;;;;;;;21.87;58.28;95037.06;5079186;28;20284;-68
2023/05/30 07:05:42;;;;;;;14.45;7.18;;;;;;;21.65;59.22;95046.50;5089778;28;20251;-68
2023/05/30 07:08:10;;;;;;;13.13;7.35;;;;;;;21.45;59.96;95042.03;5078719;28;20230;-68
2023/05/30 07:10:37;;;;;;;12.63;6.82;;;;;;;21.25;60.37;95042.75;5090976;28;20301;-68
2023/05/30 07:13:03;;;;;;;13.70;7.53;;;;;;;20.99;61.45;95048.06;5091921;28;20236;-67
2023/05/30 07:15:31;;;;;;;10.00;8.23;;;;;;;20.75;62.54;95052.47;5090349;28;20202;-67
2023/05/30 07:17:58;;;;;;;9.07;6.28;;;;;;;20.76;63.26;95051.53;5072227;28;20229;-70
2023/05/30 07:20:24;;;;;;;8.00;6.18;;;;;;;20.95;62.85;95049.25;5072252;28;20226;-69
2023/05/30 07:22:51;;;;;;;15.27;6.35;;;;;;;21.18;62.88;95050.09;5079689;28;20702;-69
2023/05/30 07:25:19;;;;;;;14.25;6.50;;;;;;;21.27;61.92;95054.59;5089065;28;20225;-67
2023/05/30 07:27:46;;;;;;;11.52;6.18;;;;;;;21.85;60.76;95059.63;5090565;28;20233;-67
2023/05/30 07:30:13;;;;;;;14.65;6.85;;;;;;;22.76;58.99;95061.88;5090484;28;20240;-70
2023/05/30 07:32:39;;;;;;;13.00;7.38;;;;;;;24.36;55.08;95059.53;5090985;28;20222;-69
2023/05/30 07:35:06;;;;;;;10.18;7.10;;;;;;;26.00;50.17;95054.03;5077656;28;20267;-70
2023/05/30 07:37:36;;;;;;;9.90;7.32;;;;;;;26.75;47.16;95052.88;5090032;28;20256;-70
2023/05/30 07:40:05;;;;;;;14.13;7.30;;;;;;;26.24;48.04;95046.50;5088818;28;20690;-69
2023/05/30 07:42:33;;;;;;;11.55;7.50;;;;;;;25.32;50.45;95043.06;5081353;28;20206;-65
2023/05/30 07:45:00;;;;;;;9.75;7.05;;;;;;;24.48;52.22;95044.66;5072027;28;20234;-66
2023/05/30 07:47:26;;;;;;;10.85;7.28;;;;;;;24.08;53.82;95048.09;5081929;28;20206;-70
2023/05/30 07:49:53;;;;;;;10.05;6.93;;;;;;;23.78;54.50;95043.78;5085450;28;20230;-69
2023/05/30 07:52:20;;;;;;;10.30;8.00;;;;;;;23.96;54.89;95044.81;5082150;28;20253;-69
2023/05/30 07:54:46;;;;;;;11.43;7.63;;;;;;;24.53;53.47;95048.44;5073474;28;20230;-68
2023/05/30 07:57:13;;;;;;;8.38;7.60;;;;;;;24.84;52.05;95050.91;5082799;28;20268;-69
2023/05/30 07:59:42;;;;;;;9.57;7.47;;;;;;;25.28;52.00;95049.50;5088338;28;20743;-69
2023/05/30 08:02:09;;;;;;;13.45;6.28;;;;;;;25.74;50.99;95033.88;5090304;28;20271;-68
2023/05/30 08:04:37;;;;;;;7.03;5.70;;;;;;;26.24;49.40;95058.69;5089199;28;20284;-70
2023/05/30 08:07:04;;;;;;;5.97;5.40;;;;;;;25.40;51.88;95049.19;5090071;28;20251;-70
2023/05/30 08:09:31;;;;;;;7.35;5.95;;;;;;;24.90;53.08;95056.41;5090791;28;20229;-70
2023/05/30 08:11:59;;;;;;;6.45;4.43;;;;;;;24.19;53.40;95048.00;5090684;28;20233;-69
2023/05/30 08:14:26;;;;;;;9.50;4.32;;;;;;;24.61;53.71;95050.38;5089308;28;20229;-70
2023/05/30 08:16:53;;;;;;;4.57;4.18;;;;;;;25.12;51.53;95051.88;5090052;28;20257;-69
2023/05/30 08:19:22;;;;;;;5.45;3.78;;;;;;;25.04;51.52;95053.38;5088406;28;20732;-71
2023/05/30 08:21:49;;;;;;;4.60;4.30;;;;;;;24.63;53.02;95058.88;5089875;28;20562;-69
2023/05/30 08:24:16;;;;;;;5.82;5.43;;;;;;;24.00;55.75;95063.53;5079500;28;20263;-69
2023/05/30 08:26:42;;;;;;;5.90;5.50;;;;;;;23.16;58.45;95069.81;5087963;28;20201;-64
2023/05/30 08:29:10;;;;;;;9.75;8.73;;;;;;;22.74;60.31;95067.19;5082435;28;20229;-65
2023/05/30 08:31:37;;;;;;;8.00;7.40;;;;;;;23.39;60.27;95066.13;5082247;28;20679;-69
2023/05/30 08:34:05;;;;;;;8.18;6.35;;;;;;;23.85;57.14;95063.06;5076053;28;20233;-68
2023/05/30 08:36:32;;;;;;;8.30;6.55;;;;;;;24.16;56.31;95066.44;5075519;28;20237;-70
2023/05/30 08:38:59;;;;;;;6.25;5.85;;;;;;;24.26;55.27;95067.28;5070911;28;20213;-70
2023/05/30 08:41:26;;;;;;;5.63;4.45;;;;;;;23.94;55.43;95061.47;5085428;28;20288;-70
2023/05/30 08:43:53;;;;;;;8.63;4.85;;;;;;;23.61;55.77;95059.97;5083337;28;20204;-69
2023/05/30 08:46:20;;;;;;;6.38;4.28;;;;;;;23.14;57.13;95061.34;5084998;28;20229;-69
2023/05/30 08:48:48;;;;;;;5.15;4.85;;;;;;;22.98;57.90;95061.81;5089573;28;20232;-69
2023/05/30 08:51:18;;;;;;;4.43;3.15;;;;;;;23.33;56.62;95059.69;5088333;28;20213;-68
2023/05/30 08:53:49;;;;;;;5.45;2.95;;;;;;;23.31;56.35;95058.97;5090436;28;20194;-69
2023/05/30 08:56:21;;;;;;;2.90;2.70;;;;;;;24.16;53.91;95058.66;5088847;28;20197;-68
2023/05/30 08:58:50;;;;;;;3.20;2.85;;;;;;;25.03;51.48;95058.72;5079844;28;20229;-68
2023/05/30 09:01:17;;;;;;;2.92;2.70;;;;;;;26.11;48.85;95064.25;5076038;28;20225;-69
2023/05/30 09:03:45;;;;;;;3.80;2.45;;;;;;;25.79;48.69;95059.47;5090223;28;20198;-70
2023/05/30 09:06:13;;;;;;;2.50;2.40;;;;;;;25.09;51.08;95059.00;5076675;28;20674;-69
2023/05/30 09:08:43;;;;;;;2.75;2.55;;;;;;;24.26;53.61;95067.28;5088892;28;20233;-70
2023/05/30 09:11:11;;;;;;;4.53;3.00;;;;;;;24.07;54.74;95064.63;5089102;28;20205;-70
2023/05/30 09:13:37;;;;;;;3.65;3.00;;;;;;;24.41;54.54;95065.97;5094177;28;20330;-69
2023/05/30 09:16:04;;;;;;;3.17;2.97;;;;;;;24.88;53.27;95066.09;5092473;28;20241;-65
2023/05/30 09:18:32;;;;;;;3.70;3.50;;;;;;;23.89;55.28;95063.63;5093482;28;20249;-71
2023/05/30 09:20:58;;;;;;;3.55;2.80;;;;;;;22.46;58.47;95060.00;5092578;28;20690;-67
2023/05/30 09:23:25;;;;;;;3.72;3.53;;;;;;;21.83;62.29;95077.03;5092898;28;20251;-69
2023/05/30 09:25:54;;;;;;;3.95;3.75;;;;;;;21.43;63.65;95069.78;5092723;28;20569;-68
2023/05/30 09:28:25;;;;;;;4.43;4.13;;;;;;;21.42;63.41;95075.06;5093138;28;20690;-66
2023/05/30 09:30:56;;;;;;;3.35;3.15;;;;;;;21.75;63.07;95063.91;5093073;28;21268;-69
2023/05/30 09:33:23;;;;;;;9.50;5.53;;;;;;;21.92;62.84;95063.41;5093002;28;20233;-68
2023/05/30 09:35:53;;;;;;;5.03;4.78;;;;;;;22.25;62.51;95058.19;5093310;28;20682;-69
2023/05/30 09:38:22;;;;;;;7.45;6.85;;;;;;;22.59;61.99;95055.47;5092898;28;20294;-69
2023/05/30 09:40:51;;;;;;;7.20;6.65;;;;;;;22.89;61.40;95060.78;5093155;28;20194;-68
2023/05/30 09:43:34;;;;;;;6.75;6.22;;;;;;;22.83;60.70;95053.50;5092608;28;20201;-68
2023/05/30 09:46:01;;;;;;;4.85;3.00;;;;;;;22.62;58.69;95048.28;5092858;28;20701;-69
2023/05/30 09:48:28;;;;;;;3.22;3.03;;;;;;;22.35;59.47;95053.09;5092169;28;20189;-70
2023/05/30 09:50:54;;;;;;;5.35;2.40;;;;;;;22.19;60.38;95056.09;5093078;28;20253;-69
2023/05/30 09:53:21;;;;;;;3.03;2.83;;;;;;;22.35;60.05;95061.69;5087676;28;20694;-69
2023/05/30 09:55:49;;;;;;;4.18;3.78;;;;;;;22.44;60.85;95054.13;5074408;28;20256;-69
2023/05/30 09:58:20;;;;;;;3.30;3.15;;;;;;;22.26;60.39;95039.13;5079885;28;20217;-68
2023/05/30 10:00:51;;;;;;;4.03;3.40;;;;;;;22.11;61.22;95055.84;5080357;28;20274;-70
2023/05/30 10:03:18;;;;;;;3.80;3.55;;;;;;;22.32;61.73;95048.97;5092085;28;20202;-68
2023/05/30 10:05:45;;;;;;;4.45;3.72;;;;;;;22.38;62.04;95051.06;5079847;28;20233;-68
2023/05/30 10:08:12;;;;;;;4.57;4.18;;;;;;;22.39;62.34;95041.53;5080335;28;20236;-69
2023/05/30 10:10:39;;;;;;;3.97;3.67;;;;;;;22.44;62.41;95041.19;5091841;28;20233;-69
2023/05/30 10:13:06;;;;;;;4.90;3.65;;;;;;;22.33;61.12;95042.03;5093347;28;20202;-67
2023/05/30 10:15:34;;;;;;;3.33;3.13;;;;;;;22.33;62.00;95045.44;5090897;28;20232;-65
2023/05/30 10:18:08;;;;;;;3.58;3.28;;;;;;;22.25;62.29;95047.84;5085214;28;20315;-69
2023/05/30 10:20:37;;;;;;;5.13;3.25;;;;;;;22.42;62.10;95048.25;5073867;28;20662;-68
2023/05/30 10:23:07;;;;;;;3.55;3.25;;;;;;;22.65;62.39;95060.16;5071517;28;20660;-68
2023/05/30 10:25:36;;;;;;;3.42;3.13;;;;;;;22.71;61.25;95044.94;5070851;28;20198;-68
2023/05/30 10:28:05;;;;;;;3.30;3.10;;;;;;;22.91;61.52;95040.75;5071555;28;20209;-68
2023/05/30 10:30:33;;;;;;;5.03;4.25;;;;;;;23.04;60.51;95017.22;5071237;28;20225;-65
2023/05/30 10:33:05;;;;;;;5.70;5.20;;;;;;;23.33;59.05;95014.78;5071590;28;20288;-68
2023/05/30 10:35:33;;;;;;;4.28;3.42;;;;;;;23.70;57.32;95018.50;5071569;28;20186;-68
2023/05/30 10:38:01;;;;;;;3.20;2.90;;;;;;;23.67;57.46;95013.59;5071444;28;20925;-67
2023/05/30 10:40:40;;;;;;;4.05;2.95;;;;;;;23.50;57.49;95021.97;5090977;28;20283;-69
2023/05/30 10:43:26;;;;;;;4.38;2.95;;;;;;;23.65;57.06;95012.88;5090789;28;20233;-68
2023/05/30 10:46:07;;;;;;;2.90;2.72;;;;;;;23.52;56.73;95014.03;5085681;28;20274;-69
2023/05/30 10:48:44;;;;;;;7.60;2.65;;;;;;;23.72;57.41;95011.41;5078818;28;20225;-68
2023/05/30 10:51:12;;;;;;;3.50;2.78;;;;;;;24.15;57.15;95007.69;5085772;28;20232;-70
2023/05/30 10:53:41;;;;;;;2.78;2.63;;;;;;;24.06;56.57;95003.28;5075387;28;20209;-71
2023/05/30 10:56:31;;;;;;;2.20;2.10;;;;;;;24.15;55.07;95005.06;5084821;28;20674;-72
2023/05/30 10:58:58;;;;;;;2.45;2.25;;;;;;;23.85;55.32;94998.19;5086722;28;20233;-70
2023/05/30 11:01:26;;;;;;;4.35;1.85;;;;;;;24.02;56.73;94984.56;5086118;28;20217;-69
2023/05/30 11:03:59;;;;;;;1.98;1.88;;;;;;;24.63;55.15;94986.09;5080395;28;20198;-70
2023/05/30 11:06:27;;;;;;;1.85;1.67;;;;;;;24.83;52.48;94982.50;5081261;28;20237;-69
2023/05/30 11:08:54;;;;;;;3.13;1.83;;;;;;;25.05;51.08;94986.59;5084016;28;20753;-65
2023/05/30 11:11:22;;;;;;;1.80;1.70;;;;;;;25.28;51.44;94981.88;5078367;28;20285;-67
2023/05/30 11:13:51;;;;;;;1.60;1.50;;;;;;;24.95;50.66;94971.03;5084740;28;20299;-70
2023/05/30 11:16:22;;;;;;;2.45;1.67;;;;;;;24.15;53.70;94966.13;5078206;28;20251;-69
2023/05/30 11:18:50;;;;;;;2.65;2.28;;;;;;;24.16;55.18;94962.56;5082868;28;20223;-71
2023/05/30 11:21:58;;;;;;;2.40;2.20;;;;;;;24.29;54.36;94963.16;5079090;28;20212;-69
2023/05/30 11:24:25;;;;;;;5.13;2.40;;;;;;;24.28;54.77;94961.50;5073029;28;20218;-68
2023/05/30 11:27:00;;;;;;;7.13;2.42;;;;;;;23.60;55.66;94951.97;5084601;28;20233;-68
2023/05/30 11:29:35;;;;;;;3.83;2.30;;;;;;;23.48;57.36;94955.59;5081675;28;20248;-68
2023/05/30 11:32:02;;;;;;;2.70;2.50;;;;;;;23.66;57.26;94944.47;5078139;28;20202;-68
2023/05/30 11:34:29;;;;;;;11.77;4.32;;;;;;;23.71;56.94;94942.31;5082414;28;20205;-69
2023/05/30 11:36:58;;;;;;;7.95;3.72;;;;;;;23.65;56.67;94931.63;5079823;28;20218;-70